createdAt,value
2018-12-23T00:03:46.132Z,2.00
2018-12-23T00:13:59.305Z,1.90
2018-12-23T00:17:10.718Z,1.70
2018-12-23T00:51:13.591Z,1.20
2018-12-23T06:17:45.310Z,-1.40
2018-12-23T06:42:07.239Z,-1.60
2018-12-23T06:44:45.237Z,-1.60
2018-12-23T06:47:19.222Z,-1.60
2018-12-23T06:50:03.065Z,-1.50
2018-12-23T06:52:56.075Z,-1.40
2018-12-23T06:55:40.375Z,-1.40
2018-12-23T06:58:28.265Z,-1.30
2018-12-23T07:01:12.854Z,-1.30
2018-12-23T07:07:24.183Z,-1.10
2018-12-23T07:12:59.889Z,-0.80
2018-12-23T07:15:46.114Z,-0.70
2018-12-23T07:18:16.720Z,-0.60
2018-12-23T07:21:12.922Z,-0.50
2018-12-23T07:28:01.267Z,-0.40
2018-12-23T07:30:39.089Z,-0.30
2018-12-23T07:33:47.421Z,-0.10
2018-12-23T07:36:28.313Z,0.00
2018-12-23T07:39:06.795Z,0.10
2018-12-23T07:41:45.646Z,0.10
2018-12-23T07:48:02.489Z,0.20
2018-12-23T07:50:40.874Z,0.30
2018-12-23T07:53:19.614Z,0.30
2018-12-23T07:55:54.556Z,0.40
2018-12-23T07:58:25.557Z,0.40
2018-12-23T08:00:59.522Z,0.40
2018-12-23T08:03:44.738Z,0.50
2018-12-23T08:06:21.978Z,0.70
2018-12-23T08:08:55.852Z,0.90
2018-12-23T08:11:32.936Z,1.10
2018-12-23T08:17:30.262Z,1.70
2018-12-23T08:20:04.126Z,2.00
2018-12-23T08:22:38.207Z,2.30
2018-12-23T08:29:38.476Z,2.60
2018-12-23T08:32:12.548Z,2.90
2018-12-23T08:34:46.505Z,3.10
2018-12-23T08:37:19.752Z,3.60
2018-12-23T08:39:53.603Z,4.40
2018-12-23T08:42:31.512Z,5.20
2018-12-23T08:48:35.379Z,6.40
2018-12-23T08:51:06.371Z,6.80
2018-12-23T08:53:40.175Z,7.10
2018-12-23T08:56:13.242Z,7.30
2018-12-23T08:58:50.236Z,7.30
2018-12-23T09:01:23.167Z,7.70
2018-12-23T09:04:00.198Z,8.30
2018-12-23T09:06:30.015Z,9.00
2018-12-23T09:12:38.836Z,8.20
2018-12-23T09:15:34.609Z,7.70
2018-12-23T09:18:05.434Z,7.40
2018-12-23T09:21:03.594Z,7.40
2018-12-23T09:23:50.090Z,8.40
2018-12-23T09:29:51.963Z,10.30
2018-12-23T09:32:29.006Z,10.30
2018-12-23T09:35:07.616Z,10.20
2018-12-23T09:37:45.961Z,10.60
2018-12-23T09:40:17.018Z,10.90
2018-12-23T09:42:46.544Z,10.50
2018-12-23T09:45:16.713Z,10.40
2018-12-23T09:47:46.514Z,10.50
2018-12-23T09:50:20.300Z,10.30
2018-12-23T09:52:49.481Z,10.60
2018-12-23T09:55:19.309Z,10.90
2018-12-23T09:57:48.271Z,10.90
2018-12-23T10:00:21.801Z,11.40
2018-12-23T10:02:51.131Z,11.70
2018-12-23T10:05:28.103Z,11.40
2018-12-23T10:08:09.904Z,11.30
2018-12-23T10:10:37.487Z,11.60
2018-12-23T10:13:13.983Z,12.10
2018-12-23T10:15:51.727Z,12.60
2018-12-23T10:18:24.999Z,13.30
2018-12-23T10:20:54.740Z,13.40
2018-12-23T10:23:26.805Z,14.30
2018-12-23T10:25:56.532Z,14.80
2018-12-23T10:28:25.451Z,15.20
2018-12-23T10:30:58.472Z,15.30
2018-12-23T10:33:28.374Z,15.40
2018-12-23T10:35:58.887Z,15.50
2018-12-23T10:38:36.409Z,15.60
2018-12-23T10:41:06.909Z,15.20
2018-12-23T10:43:45.121Z,15.10
2018-12-23T10:46:20.693Z,14.10
2018-12-23T10:48:50.757Z,13.70
2018-12-23T10:51:21.729Z,13.40
2018-12-23T10:53:50.817Z,13.50
2018-12-23T10:56:20.581Z,13.80
2018-12-23T10:58:57.653Z,13.50
2018-12-23T11:01:27.390Z,13.20
2018-12-23T11:04:00.462Z,13.10
2018-12-23T11:06:29.362Z,13.40
2018-12-23T11:09:01.283Z,13.50
2018-12-23T11:11:34.093Z,14.00
2018-12-23T11:17:26.608Z,14.20
2018-12-23T11:19:59.516Z,13.90
2018-12-23T11:22:37.544Z,13.70
2018-12-23T11:25:10.426Z,13.40
2018-12-23T11:27:41.287Z,13.10
2018-12-23T11:30:18.234Z,13.30
2018-12-23T11:32:55.399Z,13.40
2018-12-23T11:35:32.219Z,13.90
2018-12-23T11:38:03.075Z,13.60
2018-12-23T11:40:38.089Z,13.40
2018-12-23T11:43:07.966Z,13.10
2018-12-23T11:45:45.662Z,13.40
2018-12-23T11:48:19.675Z,13.20
2018-12-23T11:50:56.831Z,13.20
2018-12-23T11:53:34.785Z,13.40
2018-12-23T11:56:12.415Z,13.40
2018-12-23T11:58:41.511Z,13.20
2018-12-23T12:01:10.506Z,13.00
2018-12-23T12:03:47.422Z,12.60
2018-12-23T12:06:20.124Z,12.30
2018-12-23T12:08:53.102Z,12.10
2018-12-23T12:11:22.173Z,11.70
2018-12-23T12:13:59.079Z,11.60
2018-12-23T12:16:40.062Z,11.30
2018-12-23T12:19:11.685Z,11.00
2018-12-23T12:21:49.749Z,10.70
2018-12-23T12:24:27.754Z,10.70
2018-12-23T12:27:05.994Z,10.80
2018-12-23T12:29:46.659Z,11.00
2018-12-23T13:07:37.160Z,10.50
2018-12-23T13:14:27.648Z,10.30
2018-12-23T13:17:09.745Z,10.10
2018-12-23T13:20:16.158Z,9.70
2018-12-23T13:23:09.127Z,9.50
2018-12-23T13:29:29.880Z,9.20
2018-12-23T13:32:28.296Z,9.20
2018-12-23T13:45:22.816Z,10.30
2018-12-23T13:48:33.592Z,10.10
2018-12-23T13:51:48.516Z,10.10
2018-12-23T13:55:10.099Z,9.80
2018-12-23T14:09:22.461Z,8.50
2018-12-23T14:15:15.959Z,8.20
2018-12-23T14:21:08.549Z,7.80
2018-12-23T14:23:57.032Z,7.70
2018-12-23T14:34:13.859Z,7.20
2018-12-23T14:40:44.911Z,6.70
2018-12-23T14:57:46.421Z,5.90
2018-12-23T15:07:29.998Z,5.30
2018-12-23T15:13:57.403Z,5.00
2018-12-23T15:40:33.899Z,4.00
2018-12-23T15:47:01.419Z,3.80
2018-12-23T16:25:37.470Z,3.60
2018-12-23T17:06:41.250Z,3.40
2018-12-23T17:55:07.322Z,3.30
2018-12-23T17:57:39.500Z,3.30
2018-12-23T18:00:13.491Z,3.30
2018-12-23T18:02:59.571Z,3.30
2018-12-23T18:05:38.397Z,3.20
2018-12-23T18:53:00.474Z,3.20
2018-12-23T18:55:38.176Z,3.30
2018-12-23T21:15:26.728Z,2.90
2018-12-23T21:18:28.176Z,2.90
2018-12-23T21:24:33.072Z,3.00
2018-12-23T21:27:30.665Z,2.80
2018-12-23T21:30:39.512Z,2.60
2018-12-23T22:18:44.233Z,1.70
2018-12-23T23:04:09.205Z,1.20
